Paradise, MI (49768)

2:57 AM EST on January 20, 2017 (GMT -0500)
Whitefish Bay, Paradise, MI. | | Change Station
Active Advisory: Dense Fog Advisory

Elev 591 ft 46.58 °N, 85.04 °W | Updated 13 seconds ago

Overcast
Overcast
34.0 °F
Feels Like 34 °F
N
0.0
Wind Variable Wind from South
Gusts 0.0 mph

Today
High -- | Low -- °F
--% Chance of Precip.
Yesterday
High -- | Low -- °F
Precip. -- in
Pressure 29.80 in
Visibility 0.5 miles
Clouds Overcast 300 ft
Windchill 34 °F
Dew Point 31 °F
Humidity 87%
Rainfall 0.00 in
Snow Depth Not available.
8:16 AM 5:26 PM
Last Quarter, 46% visible
METAR KERY 200735Z AUTO 15004KT 1/2SM FG OVC003 00/00 A2980 RMK AO2 T00001002
Pressure 29.80 in
Visibility 0.5 miles
Clouds Overcast 300 ft
Windchill 34 °F
Dew Point 31 °F
Humidity 87%
Rainfall 0.00 in
Snow Depth Not available.
8:16 AM 5:26 PM
Last Quarter, 46% visible
METAR KERY 200735Z AUTO 15004KT 1/2SM FG OVC003 00/00 A2980 RMK AO2 T00001002

Get Your Daily Forecast Email!

Thanks for signing up!

Be on the lookout for a verification email in your inbox.

You'll start receiving the daily forecast at 8 AM.

×

10-Day Weather Forecast

Almanac

Astronomy

Jan. 20, 2017 Rise Set
Actual Time
Civil Twilight
Nautical Twilight
Astronomical Twilight
Moon
Length of Visible Light
Length of Day
Tomorrow will be .
, % of the Moon is Illuminated

Today's Extremes

State Highs State Lows

Community

WunderPhotos

Upload Photos

1,962,540 photos uploaded!

WunderBlog® & News

Nearby

Air Quality

  Air Quality AQ Index Pollutant
Not available.

Snow Depth

Station Depth Elevation

Earthquake Activity

City Distance Mag. Time & Date
Minimum magnitude displayed is 2.5.

Coastal Water Temperatures

Place Temperature

Stations

Nearby Weather Stations

Station Location Temp. Windchill Dew Point Humidity Wind Precip. Elev Updated Type
                   

Watches & Warnings

Dense Fog Advisory
Issued: 2:01 AM EST Jan. 20, 2017 – National Weather Service

... Dense fog advisory in effect until noon EST today...

The National Weather Service in Gaylord has issued a dense fog
advisory... which is in effect until noon EST today.

* Visibility... areas of poor visibility. One quarter of a mile or
less.

* Impacts... difficult driving conditions. Also... some temperatures
were at or just below freezing which will allow the fog to
freeze on untreated surfaces.

Precautionary/preparedness actions...

A dense fog advisory means visibilities will frequently be
reduced to less than one quarter mile. If driving... slow down...
use your headlights... and leave plenty of distance from the car
ahead of you.



Smd